sensor_id;sensor_type;location;lat;lon;timestamp;temperature;humidity
19586;DHT22;9939;49.246;9.106;2024-01-15T00:00:29;-2.40;99.90
19586;DHT22;9939;49.246;9.106;2024-01-15T00:02:57;-2.40;99.90
19586;DHT22;9939;49.246;9.106;2024-01-15T00:05:24;-2.40;99.90
19586;DHT22;9939;49.246;9.106;2024-01-15T00:07:51;-2.40;99.90
19586;DHT22;9939;49.246;9.106;2024-01-15T00:10:18;-2.30;99.90
19586;DHT22;9939;49.246;9.106;2024-01-15T00:12:45;-2.20;99.90
19586;DHT22;9939;49.246;9.106;2024-01-15T00:15:12;-2.20;99.90
19586;DHT22;9939;49.246;9.106;2024-01-15T00:17:39;-2.20;99.90
19586;DHT22;9939;49.246;9.106;2024-01-15T00:20:07;-2.20;99.90
19586;DHT22;9939;49.246;9.106;2024-01-15T00:22:34;-2.20;99.90
19586;DHT22;9939;49.246;9.106;2024-01-15T00:25:03;-2.20;99.90
19586;DHT22;9939;49.246;9.106;2024-01-15T00:27:30;-2.20;99.90
19586;DHT22;9939;49.246;9.106;2024-01-15T00:29:57;-2.10;99.90
19586;DHT22;9939;49.246;9.106;2024-01-15T00:32:24;-2.10;99.90
19586;DHT22;9939;49.246;9.106;2024-01-15T00:34:51;-2.10;99.90
19586;DHT22;9939;49.246;9.106;2024-01-15T00:37:18;-2.20;99.90
19586;DHT22;9939;49.246;9.106;2024-01-15T00:39:45;-2.20;99.90
19586;DHT22;9939;49.246;9.106;2024-01-15T00:42:12;-2.20;99.90
19586;DHT22;9939;49.246;9.106;2024-01-15T00:44:40;-2.20;99.90
19586;DHT22;9939;49.246;9.106;2024-01-15T00:47:06;-2.20;99.90
19586;DHT22;9939;49.246;9.106;2024-01-15T00:49:34;-2.20;99.90
19586;DHT22;9939;49.246;9.106;2024-01-15T00:52:01;-2.20;99.90
19586;DHT22;9939;49.246;9.106;2024-01-15T00:54:28;-2.20;99.90
19586;DHT22;9939;49.246;9.106;2024-01-15T00:56:55;-2.20;99.90
19586;DHT22;9939;49.246;9.106;2024-01-15T00:59:22;-2.20;99.90
19586;DHT22;9939;49.246;9.106;2024-01-15T01:01:49;-2.20;99.90
19586;DHT22;9939;49.246;9.106;2024-01-15T01:04:16;-2.20;99.90
19586;DHT22;9939;49.246;9.106;2024-01-15T01:06:43;-2.20;99.90
19586;DHT22;9939;49.246;9.106;2024-01-15T01:09:10;-2.20;99.90
19586;DHT22;9939;49.246;9.106;2024-01-15T01:11:37;-2.20;99.90
19586;DHT22;9939;49.246;9.106;2024-01-15T01:14:04;-2.10;99.90
19586;DHT22;9939;49.246;9.106;2024-01-15T01:16:31;-2.10;99.90
19586;DHT22;9939;49.246;9.106;2024-01-15T01:19:06;-2.10;99.90
19586;DHT22;9939;49.246;9.106;2024-01-15T01:21:34;-2.10;99.90
19586;DHT22;9939;49.246;9.106;2024-01-15T01:24:01;-2.10;99.90
19586;DHT22;9939;49.246;9.106;2024-01-15T01:26:28;-2.10;99.90
19586;DHT22;9939;49.246;9.106;2024-01-15T01:28:55;-2.10;99.90
19586;DHT22;9939;49.246;9.106;2024-01-15T01:31:23;-2.10;99.90
19586;DHT22;9939;49.246;9.106;2024-01-15T01:33:50;-2.00;99.90
19586;DHT22;9939;49.246;9.106;2024-01-15T01:36:18;-2.00;99.90
19586;DHT22;9939;49.246;9.106;2024-01-15T01:38:45;-2.00;99.90
19586;DHT22;9939;49.246;9.106;2024-01-15T01:41:12;-2.00;99.90
19586;DHT22;9939;49.246;9.106;2024-01-15T01:43:39;-2.00;99.90
19586;DHT22;9939;49.246;9.106;2024-01-15T01:46:06;-2.00;99.90
19586;DHT22;9939;49.246;9.106;2024-01-15T01:48:34;-2.00;99.90
19586;DHT22;9939;49.246;9.106;2024-01-15T01:51:03;-2.00;99.90
19586;DHT22;9939;49.246;9.106;2024-01-15T01:53:32;-2.00;99.90
19586;DHT22;9939;49.246;9.106;2024-01-15T01:56:02;-2.00;99.90
19586;DHT22;9939;49.246;9.106;2024-01-15T01:58:30;-2.10;99.90
19586;DHT22;9939;49.246;9.106;2024-01-15T02:00:58;-2.10;99.90
19586;DHT22;9939;49.246;9.106;2024-01-15T02:03:27;-2.10;99.90
19586;DHT22;9939;49.246;9.106;2024-01-15T02:05:55;-2.10;99.90
19586;DHT22;9939;49.246;9.106;2024-01-15T02:08:22;-1.90;99.90
19586;DHT22;9939;49.246;9.106;2024-01-15T02:10:49;-2.10;99.90
19586;DHT22;9939;49.246;9.106;2024-01-15T02:13:17;-2.20;99.90
19586;DHT22;9939;49.246;9.106;2024-01-15T02:15:45;-2.20;99.90
19586;DHT22;9939;49.246;9.106;2024-01-15T02:18:12;-2.10;99.90
19586;DHT22;9939;49.246;9.106;2024-01-15T02:20:39;-2.20;99.90
19586;DHT22;9939;49.246;9.106;2024-01-15T02:23:14;-2.10;99.90
19586;DHT22;9939;49.246;9.106;2024-01-15T02:25:46;-2.10;99.90
19586;DHT22;9939;49.246;9.106;2024-01-15T02:28:17;-2.10;99.90
19586;DHT22;9939;49.246;9.106;2024-01-15T02:30:44;-2.10;99.90
19586;DHT22;9939;49.246;9.106;2024-01-15T02:33:12;-2.10;99.90
19586;DHT22;9939;49.246;9.106;2024-01-15T02:35:40;-2.10;99.90
19586;DHT22;9939;49.246;9.106;2024-01-15T02:38:07;-2.10;99.90
19586;DHT22;9939;49.246;9.106;2024-01-15T02:40:35;-2.10;99.90
19586;DHT22;9939;49.246;9.106;2024-01-15T02:43:02;-2.10;99.90
19586;DHT22;9939;49.246;9.106;2024-01-15T02:45:30;-2.10;99.90
19586;DHT22;9939;49.246;9.106;2024-01-15T02:47:57;-2.00;99.90
19586;DHT22;9939;49.246;9.106;2024-01-15T02:50:24;-2.00;99.90
19586;DHT22;9939;49.246;9.106;2024-01-15T02:52:51;-2.00;99.90
19586;DHT22;9939;49.246;9.106;2024-01-15T02:55:18;-2.00;99.90
19586;DHT22;9939;49.246;9.106;2024-01-15T02:57:45;-2.00;99.90
19586;DHT22;9939;49.246;9.106;2024-01-15T03:00:13;-2.00;99.90
19586;DHT22;9939;49.246;9.106;2024-01-15T03:02:40;-2.00;99.90
19586;DHT22;9939;49.246;9.106;2024-01-15T03:05:13;-2.00;99.90
19586;DHT22;9939;49.246;9.106;2024-01-15T03:07:41;-2.00;99.90
19586;DHT22;9939;49.246;9.106;2024-01-15T03:10:08;-2.00;99.90
19586;DHT22;9939;49.246;9.106;2024-01-15T03:12:35;-2.00;99.90
19586;DHT22;9939;49.246;9.106;2024-01-15T03:15:02;-2.00;99.90
19586;DHT22;9939;49.246;9.106;2024-01-15T03:17:29;-2.00;99.90
19586;DHT22;9939;49.246;9.106;2024-01-15T03:19:56;-2.00;99.90
19586;DHT22;9939;49.246;9.106;2024-01-15T03:22:24;-2.00;99.90
19586;DHT22;9939;49.246;9.106;2024-01-15T03:24:52;-2.00;99.90
19586;DHT22;9939;49.246;9.106;2024-01-15T03:27:19;-2.00;99.90
19586;DHT22;9939;49.246;9.106;2024-01-15T03:29:46;-2.00;99.90
19586;DHT22;9939;49.246;9.106;2024-01-15T03:32:13;-2.00;99.90
19586;DHT22;9939;49.246;9.106;2024-01-15T03:34:39;-2.00;99.90
19586;DHT22;9939;49.246;9.106;2024-01-15T03:37:06;-2.00;99.90
19586;DHT22;9939;49.246;9.106;2024-01-15T03:39:33;-2.00;99.90
19586;DHT22;9939;49.246;9.106;2024-01-15T03:42:01;-2.00;99.90
19586;DHT22;9939;49.246;9.106;2024-01-15T03:44:28;-2.00;99.90
19586;DHT22;9939;49.246;9.106;2024-01-15T03:46:54;-2.00;99.90
19586;DHT22;9939;49.246;9.106;2024-01-15T03:49:22;-2.00;99.90
19586;DHT22;9939;49.246;9.106;2024-01-15T03:51:49;-2.00;99.90
19586;DHT22;9939;49.246;9.106;2024-01-15T03:54:17;-2.00;99.90
19586;DHT22;9939;49.246;9.106;2024-01-15T03:56:46;-1.90;99.90
19586;DHT22;9939;49.246;9.106;2024-01-15T03:59:13;-2.00;99.90
19586;DHT22;9939;49.246;9.106;2024-01-15T04:01:40;-2.00;99.90
19586;DHT22;9939;49.246;9.106;2024-01-15T04:04:07;-1.90;99.90
19586;DHT22;9939;49.246;9.106;2024-01-15T04:06:34;-1.90;99.90
19586;DHT22;9939;49.246;9.106;2024-01-15T04:09:02;-2.00;99.90
19586;DHT22;9939;49.246;9.106;2024-01-15T04:11:29;-1.90;99.90
19586;DHT22;9939;49.246;9.106;2024-01-15T04:13:56;-1.90;99.90
19586;DHT22;9939;49.246;9.106;2024-01-15T04:16:23;-1.90;99.90
19586;DHT22;9939;49.246;9.106;2024-01-15T04:18:50;-1.90;99.90
19586;DHT22;9939;49.246;9.106;2024-01-15T04:21:18;-2.00;99.90
19586;DHT22;9939;49.246;9.106;2024-01-15T04:23:45;-1.90;99.90
19586;DHT22;9939;49.246;9.106;2024-01-15T04:26:12;-1.90;99.90
19586;DHT22;9939;49.246;9.106;2024-01-15T04:28:39;-2.00;99.90
19586;DHT22;9939;49.246;9.106;2024-01-15T04:31:07;-1.90;99.90
19586;DHT22;9939;49.246;9.106;2024-01-15T04:33:34;-1.90;99.90
19586;DHT22;9939;49.246;9.106;2024-01-15T04:36:03;-1.90;99.90
19586;DHT22;9939;49.246;9.106;2024-01-15T04:38:30;-1.90;99.90
19586;DHT22;9939;49.246;9.106;2024-01-15T04:40:57;-1.90;99.90
19586;DHT22;9939;49.246;9.106;2024-01-15T04:43:24;-1.90;99.90
19586;DHT22;9939;49.246;9.106;2024-01-15T04:45:52;-1.80;99.90
19586;DHT22;9939;49.246;9.106;2024-01-15T04:48:19;-1.80;99.90
19586;DHT22;9939;49.246;9.106;2024-01-15T04:50:46;-1.80;99.90
19586;DHT22;9939;49.246;9.106;2024-01-15T04:53:13;-1.80;99.90
19586;DHT22;9939;49.246;9.106;2024-01-15T04:55:40;-1.80;99.90
19586;DHT22;9939;49.246;9.106;2024-01-15T04:58:07;-1.80;99.90
19586;DHT22;9939;49.246;9.106;2024-01-15T05:00:34;-1.80;99.90
19586;DHT22;9939;49.246;9.106;2024-01-15T05:03:01;-1.80;99.90
19586;DHT22;9939;49.246;9.106;2024-01-15T05:05:28;-1.70;99.90
19586;DHT22;9939;49.246;9.106;2024-01-15T05:07:55;-1.70;99.90
19586;DHT22;9939;49.246;9.106;2024-01-15T05:10:22;-1.70;99.90
19586;DHT22;9939;49.246;9.106;2024-01-15T05:12:49;-1.70;99.90
19586;DHT22;9939;49.246;9.106;2024-01-15T05:15:16;-1.70;99.90
19586;DHT22;9939;49.246;9.106;2024-01-15T05:17:43;-1.70;99.90
19586;DHT22;9939;49.246;9.106;2024-01-15T05:20:11;-1.70;99.90
19586;DHT22;9939;49.246;9.106;2024-01-15T05:22:38;-1.70;99.90
19586;DHT22;9939;49.246;9.106;2024-01-15T05:25:05;-1.70;99.90
19586;DHT22;9939;49.246;9.106;2024-01-15T05:27:32;-1.70;99.90
19586;DHT22;9939;49.246;9.106;2024-01-15T05:29:59;-1.60;99.90
19586;DHT22;9939;49.246;9.106;2024-01-15T05:32:26;-1.50;99.90
19586;DHT22;9939;49.246;9.106;2024-01-15T05:34:53;-1.60;99.90
19586;DHT22;9939;49.246;9.106;2024-01-15T05:37:20;-1.60;99.90
19586;DHT22;9939;49.246;9.106;2024-01-15T05:39:47;-1.60;99.90
19586;DHT22;9939;49.246;9.106;2024-01-15T05:42:14;-1.60;99.90
19586;DHT22;9939;49.246;9.106;2024-01-15T05:44:41;-1.60;99.90
19586;DHT22;9939;49.246;9.106;2024-01-15T05:47:08;-1.60;99.90
19586;DHT22;9939;49.246;9.106;2024-01-15T05:49:35;-1.60;99.90
19586;DHT22;9939;49.246;9.106;2024-01-15T05:52:03;-1.60;99.90
19586;DHT22;9939;49.246;9.106;2024-01-15T05:54:30;-1.60;99.90
19586;DHT22;9939;49.246;9.106;2024-01-15T05:56:57;-1.60;99.90
19586;DHT22;9939;49.246;9.106;2024-01-15T05:59:24;-1.60;99.90
19586;DHT22;9939;49.246;9.106;2024-01-15T06:01:52;-1.60;99.90
19586;DHT22;9939;49.246;9.106;2024-01-15T06:04:19;-1.60;99.90
19586;DHT22;9939;49.246;9.106;2024-01-15T06:06:46;-1.60;99.90
19586;DHT22;9939;49.246;9.106;2024-01-15T06:09:13;-1.50;99.90
19586;DHT22;9939;49.246;9.106;2024-01-15T06:11:41;-1.50;99.90
19586;DHT22;9939;49.246;9.106;2024-01-15T06:14:08;-1.50;99.90
19586;DHT22;9939;49.246;9.106;2024-01-15T06:16:35;-1.50;99.90
19586;DHT22;9939;49.246;9.106;2024-01-15T06:19:02;-1.50;99.90
19586;DHT22;9939;49.246;9.106;2024-01-15T06:21:29;-1.50;99.90
19586;DHT22;9939;49.246;9.106;2024-01-15T06:23:56;-1.50;99.90
19586;DHT22;9939;49.246;9.106;2024-01-15T06:26:23;-1.40;99.90
19586;DHT22;9939;49.246;9.106;2024-01-15T06:28:51;-1.50;99.90
19586;DHT22;9939;49.246;9.106;2024-01-15T06:31:18;-1.40;99.90
19586;DHT22;9939;49.246;9.106;2024-01-15T06:33:45;-1.30;99.90
19586;DHT22;9939;49.246;9.106;2024-01-15T06:36:15;-1.40;99.90
19586;DHT22;9939;49.246;9.106;2024-01-15T06:38:45;-1.40;99.90
19586;DHT22;9939;49.246;9.106;2024-01-15T06:41:12;-1.40;99.90
19586;DHT22;9939;49.246;9.106;2024-01-15T06:43:39;-1.40;99.90
19586;DHT22;9939;49.246;9.106;2024-01-15T06:46:06;-1.50;99.90
19586;DHT22;9939;49.246;9.106;2024-01-15T06:48:34;-1.40;99.90
19586;DHT22;9939;49.246;9.106;2024-01-15T06:51:02;-1.40;99.90
19586;DHT22;9939;49.246;9.106;2024-01-15T06:53:29;-1.40;99.90
19586;DHT22;9939;49.246;9.106;2024-01-15T06:55:56;-1.30;99.90
19586;DHT22;9939;49.246;9.106;2024-01-15T06:58:23;-1.30;99.90
19586;DHT22;9939;49.246;9.106;2024-01-15T07:00:50;-1.30;99.90
19586;DHT22;9939;49.246;9.106;2024-01-15T07:03:17;-1.30;99.90
19586;DHT22;9939;49.246;9.106;2024-01-15T07:05:44;-1.30;99.90
19586;DHT22;9939;49.246;9.106;2024-01-15T07:08:12;-1.20;99.90
19586;DHT22;9939;49.246;9.106;2024-01-15T07:10:39;-1.30;99.90
19586;DHT22;9939;49.246;9.106;2024-01-15T07:13:06;-1.30;99.90
19586;DHT22;9939;49.246;9.106;2024-01-15T07:15:33;-1.10;99.90
19586;DHT22;9939;49.246;9.106;2024-01-15T07:18:00;-1.20;99.90
19586;DHT22;9939;49.246;9.106;2024-01-15T07:20:27;-1.20;99.90
19586;DHT22;9939;49.246;9.106;2024-01-15T07:22:54;-1.10;99.90
19586;DHT22;9939;49.246;9.106;2024-01-15T07:25:21;-1.10;99.90
19586;DHT22;9939;49.246;9.106;2024-01-15T07:27:48;-1.10;99.90
19586;DHT22;9939;49.246;9.106;2024-01-15T07:30:15;-1.00;99.90
19586;DHT22;9939;49.246;9.106;2024-01-15T07:32:42;-1.00;99.90
19586;DHT22;9939;49.246;9.106;2024-01-15T07:35:09;-1.00;99.90
19586;DHT22;9939;49.246;9.106;2024-01-15T07:37:37;-1.00;99.90
19586;DHT22;9939;49.246;9.106;2024-01-15T07:40:04;-1.00;99.90
19586;DHT22;9939;49.246;9.106;2024-01-15T07:42:37;-1.00;99.90
19586;DHT22;9939;49.246;9.106;2024-01-15T07:45:05;-1.00;99.90
19586;DHT22;9939;49.246;9.106;2024-01-15T07:47:32;-1.00;99.90
19586;DHT22;9939;49.246;9.106;2024-01-15T07:49:59;-1.00;99.90
19586;DHT22;9939;49.246;9.106;2024-01-15T07:52:32;-1.00;99.90
19586;DHT22;9939;49.246;9.106;2024-01-15T07:54:59;-1.00;99.90
19586;DHT22;9939;49.246;9.106;2024-01-15T07:57:31;-0.90;99.90
19586;DHT22;9939;49.246;9.106;2024-01-15T07:59:58;-0.90;99.90
19586;DHT22;9939;49.246;9.106;2024-01-15T08:02:25;-0.90;99.90
19586;DHT22;9939;49.246;9.106;2024-01-15T08:04:52;-0.90;99.90
19586;DHT22;9939;49.246;9.106;2024-01-15T08:07:19;-0.90;99.90
19586;DHT22;9939;49.246;9.106;2024-01-15T08:09:46;-0.80;99.90
19586;DHT22;9939;49.246;9.106;2024-01-15T08:12:14;-0.80;99.90
19586;DHT22;9939;49.246;9.106;2024-01-15T08:14:42;-0.70;99.90
19586;DHT22;9939;49.246;9.106;2024-01-15T08:17:09;-0.70;99.90
19586;DHT22;9939;49.246;9.106;2024-01-15T08:19:36;-0.70;99.90
19586;DHT22;9939;49.246;9.106;2024-01-15T08:22:03;-0.70;99.90
19586;DHT22;9939;49.246;9.106;2024-01-15T08:24:30;-0.60;99.90
19586;DHT22;9939;49.246;9.106;2024-01-15T08:26:58;-0.60;99.90
19586;DHT22;9939;49.246;9.106;2024-01-15T08:29:25;-0.70;99.90
19586;DHT22;9939;49.246;9.106;2024-01-15T08:31:52;-0.70;99.90
19586;DHT22;9939;49.246;9.106;2024-01-15T08:34:19;-0.70;99.90
19586;DHT22;9939;49.246;9.106;2024-01-15T08:36:46;-0.60;99.90
19586;DHT22;9939;49.246;9.106;2024-01-15T08:39:13;-0.70;99.90
19586;DHT22;9939;49.246;9.106;2024-01-15T08:41:41;-0.70;99.90
19586;DHT22;9939;49.246;9.106;2024-01-15T08:44:08;-0.70;99.90
19586;DHT22;9939;49.246;9.106;2024-01-15T08:46:35;-0.60;99.90
19586;DHT22;9939;49.246;9.106;2024-01-15T08:49:02;-0.70;99.90
19586;DHT22;9939;49.246;9.106;2024-01-15T08:51:30;-0.80;99.90
19586;DHT22;9939;49.246;9.106;2024-01-15T08:53:57;-0.80;99.90
19586;DHT22;9939;49.246;9.106;2024-01-15T08:56:24;-0.70;99.90
19586;DHT22;9939;49.246;9.106;2024-01-15T08:58:51;-0.70;99.90
19586;DHT22;9939;49.246;9.106;2024-01-15T09:01:18;-0.80;99.90
19586;DHT22;9939;49.246;9.106;2024-01-15T09:03:46;-0.70;99.90
19586;DHT22;9939;49.246;9.106;2024-01-15T09:06:15;-0.70;99.90
19586;DHT22;9939;49.246;9.106;2024-01-15T09:08:42;-0.60;99.90
19586;DHT22;9939;49.246;9.106;2024-01-15T09:11:09;-0.50;99.90
19586;DHT22;9939;49.246;9.106;2024-01-15T09:13:36;-0.50;99.90
19586;DHT22;9939;49.246;9.106;2024-01-15T09:16:04;-0.60;99.90
19586;DHT22;9939;49.246;9.106;2024-01-15T09:18:31;-0.50;99.90
19586;DHT22;9939;49.246;9.106;2024-01-15T09:20:59;-0.50;99.90
19586;DHT22;9939;49.246;9.106;2024-01-15T09:23:26;-0.40;99.90
19586;DHT22;9939;49.246;9.106;2024-01-15T09:25:55;-0.40;99.90
19586;DHT22;9939;49.246;9.106;2024-01-15T09:28:22;-0.50;99.90
19586;DHT22;9939;49.246;9.106;2024-01-15T09:30:49;-0.50;99.90
19586;DHT22;9939;49.246;9.106;2024-01-15T09:33:16;-0.50;99.90
19586;DHT22;9939;49.246;9.106;2024-01-15T09:35:44;-0.50;99.90
19586;DHT22;9939;49.246;9.106;2024-01-15T09:38:11;-0.40;99.90
19586;DHT22;9939;49.246;9.106;2024-01-15T09:40:38;-0.50;99.90
19586;DHT22;9939;49.246;9.106;2024-01-15T09:43:10;-0.40;99.90
19586;DHT22;9939;49.246;9.106;2024-01-15T09:45:37;-0.40;99.90
19586;DHT22;9939;49.246;9.106;2024-01-15T09:48:05;-0.50;99.90
19586;DHT22;9939;49.246;9.106;2024-01-15T09:50:32;-0.40;99.90
19586;DHT22;9939;49.246;9.106;2024-01-15T09:52:59;-0.30;99.90
19586;DHT22;9939;49.246;9.106;2024-01-15T09:55:26;-0.30;99.90
19586;DHT22;9939;49.246;9.106;2024-01-15T09:57:55;-0.40;99.90
19586;DHT22;9939;49.246;9.106;2024-01-15T10:00:23;-0.40;99.90
19586;DHT22;9939;49.246;9.106;2024-01-15T10:02:50;-0.30;99.90
19586;DHT22;9939;49.246;9.106;2024-01-15T10:05:17;-0.20;99.90
19586;DHT22;9939;49.246;9.106;2024-01-15T10:07:46;-0.20;99.90
19586;DHT22;9939;49.246;9.106;2024-01-15T10:10:14;-0.10;99.90
19586;DHT22;9939;49.246;9.106;2024-01-15T10:12:42;-0.10;99.90
19586;DHT22;9939;49.246;9.106;2024-01-15T10:15:10;-0.10;99.90
19586;DHT22;9939;49.246;9.106;2024-01-15T10:17:40;-0.10;99.90
19586;DHT22;9939;49.246;9.106;2024-01-15T10:20:11;0.00;99.90
19586;DHT22;9939;49.246;9.106;2024-01-15T10:22:41;0.10;99.90
19586;DHT22;9939;49.246;9.106;2024-01-15T10:25:15;0.00;99.90
19586;DHT22;9939;49.246;9.106;2024-01-15T10:27:42;0.00;99.90
19586;DHT22;9939;49.246;9.106;2024-01-15T10:30:10;-0.10;99.90
19586;DHT22;9939;49.246;9.106;2024-01-15T10:32:38;-0.20;99.90
19586;DHT22;9939;49.246;9.106;2024-01-15T10:35:07;-0.20;99.90
19586;DHT22;9939;49.246;9.106;2024-01-15T10:37:34;-0.30;99.90
19586;DHT22;9939;49.246;9.106;2024-01-15T10:40:04;-0.30;99.90
19586;DHT22;9939;49.246;9.106;2024-01-15T10:42:32;-0.20;99.90
19586;DHT22;9939;49.246;9.106;2024-01-15T10:44:59;-0.30;99.90
19586;DHT22;9939;49.246;9.106;2024-01-15T10:47:26;-0.30;99.90
19586;DHT22;9939;49.246;9.106;2024-01-15T10:49:53;-0.30;99.90
19586;DHT22;9939;49.246;9.106;2024-01-15T10:52:21;-0.20;99.90
19586;DHT22;9939;49.246;9.106;2024-01-15T10:54:49;-0.10;99.90
19586;DHT22;9939;49.246;9.106;2024-01-15T10:57:17;-0.10;99.90
19586;DHT22;9939;49.246;9.106;2024-01-15T10:59:45;-0.10;99.90
19586;DHT22;9939;49.246;9.106;2024-01-15T11:02:13;0.00;99.90
19586;DHT22;9939;49.246;9.106;2024-01-15T11:04:40;-0.10;99.90
19586;DHT22;9939;49.246;9.106;2024-01-15T11:07:08;-0.20;99.90
19586;DHT22;9939;49.246;9.106;2024-01-15T11:09:37;-0.10;99.90
19586;DHT22;9939;49.246;9.106;2024-01-15T11:12:11;-0.10;99.90
19586;DHT22;9939;49.246;9.106;2024-01-15T11:14:39;-0.20;99.90
19586;DHT22;9939;49.246;9.106;2024-01-15T11:17:07;-0.10;99.90
19586;DHT22;9939;49.246;9.106;2024-01-15T11:22:09;-0.20;99.90
19586;DHT22;9939;49.246;9.106;2024-01-15T11:24:38;-0.10;99.90
19586;DHT22;9939;49.246;9.106;2024-01-15T11:27:07;-0.20;99.90
19586;DHT22;9939;49.246;9.106;2024-01-15T11:29:36;-0.20;99.90
19586;DHT22;9939;49.246;9.106;2024-01-15T11:32:09;-0.20;99.90
19586;DHT22;9939;49.246;9.106;2024-01-15T11:34:57;-0.20;99.90
19586;DHT22;9939;49.246;9.106;2024-01-15T11:42:59;0.00;99.90
19586;DHT22;9939;49.246;9.106;2024-01-15T11:45:27;0.00;99.90
19586;DHT22;9939;49.246;9.106;2024-01-15T11:48:14;0.00;99.90
19586;DHT22;9939;49.246;9.106;2024-01-15T11:50:48;-0.10;99.90
19586;DHT22;9939;49.246;9.106;2024-01-15T11:55:59;0.00;99.90
19586;DHT22;9939;49.246;9.106;2024-01-15T11:58:28;0.00;99.90
19586;DHT22;9939;49.246;9.106;2024-01-15T12:00:55;0.00;99.90
19586;DHT22;9939;49.246;9.106;2024-01-15T12:03:23;0.10;99.90
19586;DHT22;9939;49.246;9.106;2024-01-15T12:05:52;0.00;99.90
19586;DHT22;9939;49.246;9.106;2024-01-15T12:08:23;0.00;99.90
19586;DHT22;9939;49.246;9.106;2024-01-15T12:10:50;0.00;99.90
19586;DHT22;9939;49.246;9.106;2024-01-15T12:13:18;-0.10;99.90
19586;DHT22;9939;49.246;9.106;2024-01-15T12:15:47;-0.10;99.90
19586;DHT22;9939;49.246;9.106;2024-01-15T12:18:17;0.00;99.90
19586;DHT22;9939;49.246;9.106;2024-01-15T12:20:45;0.00;99.90
19586;DHT22;9939;49.246;9.106;2024-01-15T12:23:16;0.10;99.90
19586;DHT22;9939;49.246;9.106;2024-01-15T12:25:45;0.00;99.90
19586;DHT22;9939;49.246;9.106;2024-01-15T12:28:12;0.00;99.90
19586;DHT22;9939;49.246;9.106;2024-01-15T12:30:39;0.10;99.90
19586;DHT22;9939;49.246;9.106;2024-01-15T12:33:08;0.10;99.90
19586;DHT22;9939;49.246;9.106;2024-01-15T12:35:36;0.20;99.90
19586;DHT22;9939;49.246;9.106;2024-01-15T12:38:04;0.20;99.90
19586;DHT22;9939;49.246;9.106;2024-01-15T12:40:32;0.20;99.90
19586;DHT22;9939;49.246;9.106;2024-01-15T12:43:02;0.20;99.90
19586;DHT22;9939;49.246;9.106;2024-01-15T12:45:30;0.30;99.90
19586;DHT22;9939;49.246;9.106;2024-01-15T12:47:58;0.30;99.90
19586;DHT22;9939;49.246;9.106;2024-01-15T12:50:27;0.40;99.90
19586;DHT22;9939;49.246;9.106;2024-01-15T12:52:54;0.40;99.90
19586;DHT22;9939;49.246;9.106;2024-01-15T12:55:21;0.50;99.90
19586;DHT22;9939;49.246;9.106;2024-01-15T12:57:49;0.60;99.90
19586;DHT22;9939;49.246;9.106;2024-01-15T13:00:17;0.60;99.90
19586;DHT22;9939;49.246;9.106;2024-01-15T13:02:44;0.70;99.90
19586;DHT22;9939;49.246;9.106;2024-01-15T13:05:11;0.70;99.90
19586;DHT22;9939;49.246;9.106;2024-01-15T13:07:41;0.50;99.90
19586;DHT22;9939;49.246;9.106;2024-01-15T13:10:09;0.40;99.90
19586;DHT22;9939;49.246;9.106;2024-01-15T13:12:37;0.40;99.90
19586;DHT22;9939;49.246;9.106;2024-01-15T13:15:05;0.40;99.90
19586;DHT22;9939;49.246;9.106;2024-01-15T13:17:34;0.50;99.90
19586;DHT22;9939;49.246;9.106;2024-01-15T13:20:01;0.60;99.90
19586;DHT22;9939;49.246;9.106;2024-01-15T13:22:30;0.60;99.90
19586;DHT22;9939;49.246;9.106;2024-01-15T13:24:59;0.60;99.90
19586;DHT22;9939;49.246;9.106;2024-01-15T13:27:27;0.60;99.90
19586;DHT22;9939;49.246;9.106;2024-01-15T13:29:55;0.60;99.90
19586;DHT22;9939;49.246;9.106;2024-01-15T13:32:25;0.60;99.90
19586;DHT22;9939;49.246;9.106;2024-01-15T13:34:56;0.60;99.90
19586;DHT22;9939;49.246;9.106;2024-01-15T13:37:24;0.80;99.90
19586;DHT22;9939;49.246;9.106;2024-01-15T13:39:52;0.90;99.90
19586;DHT22;9939;49.246;9.106;2024-01-15T13:42:20;0.80;99.90
19586;DHT22;9939;49.246;9.106;2024-01-15T13:44:50;0.90;99.90
19586;DHT22;9939;49.246;9.106;2024-01-15T13:47:18;0.90;99.90
19586;DHT22;9939;49.246;9.106;2024-01-15T13:49:45;1.00;99.90
19586;DHT22;9939;49.246;9.106;2024-01-15T13:52:13;0.90;99.90
19586;DHT22;9939;49.246;9.106;2024-01-15T13:54:40;0.90;99.90
19586;DHT22;9939;49.246;9.106;2024-01-15T13:57:19;0.90;99.90
19586;DHT22;9939;49.246;9.106;2024-01-15T13:59:47;0.90;99.90
19586;DHT22;9939;49.246;9.106;2024-01-15T14:02:16;0.90;99.90
19586;DHT22;9939;49.246;9.106;2024-01-15T14:04:47;0.90;99.90
19586;DHT22;9939;49.246;9.106;2024-01-15T14:07:16;0.90;99.90
19586;DHT22;9939;49.246;9.106;2024-01-15T14:09:43;0.90;99.90
19586;DHT22;9939;49.246;9.106;2024-01-15T14:12:10;0.90;99.90
19586;DHT22;9939;49.246;9.106;2024-01-15T14:14:39;0.80;99.90
19586;DHT22;9939;49.246;9.106;2024-01-15T14:17:06;0.70;99.90
19586;DHT22;9939;49.246;9.106;2024-01-15T14:19:34;0.70;99.90
19586;DHT22;9939;49.246;9.106;2024-01-15T14:22:01;0.70;99.90
19586;DHT22;9939;49.246;9.106;2024-01-15T14:24:28;0.70;99.90
19586;DHT22;9939;49.246;9.106;2024-01-15T14:26:55;0.80;99.90
19586;DHT22;9939;49.246;9.106;2024-01-15T14:29:23;0.70;99.90
19586;DHT22;9939;49.246;9.106;2024-01-15T14:31:53;0.70;99.90
19586;DHT22;9939;49.246;9.106;2024-01-15T14:34:20;0.70;99.90
19586;DHT22;9939;49.246;9.106;2024-01-15T14:36:50;0.60;99.90
19586;DHT22;9939;49.246;9.106;2024-01-15T14:39:22;0.60;99.90
19586;DHT22;9939;49.246;9.106;2024-01-15T14:41:49;0.70;99.90
19586;DHT22;9939;49.246;9.106;2024-01-15T14:44:16;0.70;99.90
19586;DHT22;9939;49.246;9.106;2024-01-15T14:46:44;0.50;99.90
19586;DHT22;9939;49.246;9.106;2024-01-15T14:49:11;0.50;99.90
19586;DHT22;9939;49.246;9.106;2024-01-15T14:51:38;0.50;99.90
19586;DHT22;9939;49.246;9.106;2024-01-15T14:54:05;0.50;99.90
19586;DHT22;9939;49.246;9.106;2024-01-15T14:56:32;0.60;99.90
19586;DHT22;9939;49.246;9.106;2024-01-15T14:58:59;0.60;99.90
19586;DHT22;9939;49.246;9.106;2024-01-15T15:01:26;0.60;99.90
19586;DHT22;9939;49.246;9.106;2024-01-15T15:03:53;0.60;99.90
19586;DHT22;9939;49.246;9.106;2024-01-15T15:06:20;0.60;99.90
19586;DHT22;9939;49.246;9.106;2024-01-15T15:08:48;0.60;99.90
19586;DHT22;9939;49.246;9.106;2024-01-15T15:11:15;0.60;99.90
19586;DHT22;9939;49.246;9.106;2024-01-15T15:13:42;0.50;99.90
19586;DHT22;9939;49.246;9.106;2024-01-15T15:16:12;0.40;99.90
19586;DHT22;9939;49.246;9.106;2024-01-15T15:18:41;0.30;99.90
19586;DHT22;9939;49.246;9.106;2024-01-15T15:21:13;0.30;99.90
19586;DHT22;9939;49.246;9.106;2024-01-15T15:23:40;0.30;99.90
19586;DHT22;9939;49.246;9.106;2024-01-15T15:26:07;0.30;99.90
19586;DHT22;9939;49.246;9.106;2024-01-15T15:28:34;0.20;99.90
19586;DHT22;9939;49.246;9.106;2024-01-15T15:31:03;0.30;99.90
19586;DHT22;9939;49.246;9.106;2024-01-15T15:33:31;0.20;99.90
19586;DHT22;9939;49.246;9.106;2024-01-15T15:35:58;0.20;99.90
19586;DHT22;9939;49.246;9.106;2024-01-15T15:38:26;0.10;99.90
19586;DHT22;9939;49.246;9.106;2024-01-15T15:40:53;0.10;99.90
19586;DHT22;9939;49.246;9.106;2024-01-15T15:43:22;0.00;99.90
19586;DHT22;9939;49.246;9.106;2024-01-15T15:45:49;-0.10;99.90
19586;DHT22;9939;49.246;9.106;2024-01-15T15:48:16;-0.20;99.90
19586;DHT22;9939;49.246;9.106;2024-01-15T15:50:44;-0.20;99.90
19586;DHT22;9939;49.246;9.106;2024-01-15T15:53:11;-0.20;99.90
19586;DHT22;9939;49.246;9.106;2024-01-15T15:55:38;-0.30;99.90
19586;DHT22;9939;49.246;9.106;2024-01-15T15:58:05;-0.30;99.90
19586;DHT22;9939;49.246;9.106;2024-01-15T16:00:33;-0.40;99.90
19586;DHT22;9939;49.246;9.106;2024-01-15T16:03:00;-0.20;99.90